Shanghai Dawn — 3FMN2 — position and weather

sailwx.info

Track history (hours):
 
Tides and Currents Weather Stations Pressure Air Temp Water Temp Dewpoint Dewpoint Depression Visibility Wind Speed Wind Dir Waves Ship Positions

Shanghai Dawn

Last reported at 2016-Jul-30 14:17 UTC. Time now 2016-Jul-30 14:59 UTC.
Position N 01°14' E 103°46'.

Length 246 m; draft 14.5 m.

Type: Tanker. MMSI: 356075000.

Date/timePositionNaut miles runAvg speedWind from/ knotsBaromVisibWave heightAir tempDewpointWater temp
2016-Jul-30 14:17N 01°14' E 103°46'0 0.0
2016-Jul-30 13:32N 01°14' E 103°46'0 0.0
2016-Jul-30 11:11N 01°14' E 103°46'0 0.1
2016-Jul-30 10:33N 01°14' E 103°46'3 3.4
2016-Jul-30 09:33N 01°13' E 103°49'7 7.0
2016-Jul-30 08:33N 01°14' E 103°56'1 0.6
2016-Jul-30 07:08N 01°15' E 103°55'0 0.2
2016-Jul-30 06:32N 01°15' E 103°55'0 0.1
2016-Jul-30 05:32N 01°15' E 103°55'0 0.0
2016-Jul-29 23:26N 01°15' E 103°55'0 0.0
2016-Jul-29 22:26N 01°15' E 103°55'0 0.0
2016-Jul-29 21:32N 01°15' E 103°55'0 0.0
2016-Jul-29 20:26N 01°15' E 103°55'0 0.0
2016-Jul-29 19:32N 01°15' E 103°55'0 0.0
2016-Jul-29 18:32N 01°15' E 103°55'0 0.0
2016-Jul-29 17:32N 01°15' E 103°55'0 0.0
2016-Jul-29 16:32N 01°15' E 103°55'0 0.0
2016-Jul-29 15:26N 01°15' E 103°55'0 0.0
2016-Jul-29 14:32N 01°15' E 103°55'0 0.0
2016-Jul-29 13:32N 01°15' E 103°55'0 0.0
2016-Jul-29 12:32N 01°15' E 103°55'0 0.2
2016-Jul-29 11:32N 01°15' E 103°55'0 0.1
2016-Jul-29 10:08N 01°15' E 103°55'0 0.0
2016-Jul-29 09:26N 01°15' E 103°55'0 0.0
2016-Jul-29 08:32N 01°15' E 103°55'0 0.2
2016-Jul-29 07:26N 01°15' E 103°55'0 0.1
2016-Jul-29 06:32N 01°15' E 103°55'0 0.1
2016-Jul-29 05:32N 01°15' E 103°55'0 0.0
2016-Jul-29 04:26N 01°15' E 103°55'0 0.0
2016-Jul-29 03:32N 01°15' E 103°55'0 0.0
2016-Jul-29 02:20N 01°15' E 103°55'0 0.0
2016-Jul-29 01:32N 01°15' E 103°55'0 0.0
2016-Jul-29 00:32N 01°15' E 103°55'0 0.0
2016-Jul-28 23:32N 01°15' E 103°55'0 0.0
2016-Jul-28 22:32N 01°15' E 103°55'0 0.0
2016-Jul-28 21:32N 01°15' E 103°55'0 0.0
2016-Jul-28 20:32N 01°15' E 103°55'0 0.0
2016-Jul-28 19:26N 01°15' E 103°55'0 0.0
2016-Jul-28 18:20N 01°15' E 103°55'0 0.0
2016-Jul-28 17:08N 01°15' E 103°55'0 0.0
2016-Jul-28 16:29N 01°15' E 103°55'0 0.0
2016-Jul-28 15:32N 01°15' E 103°55'0 0.0
2016-Jul-28 14:26N 01°15' E 103°55'0 0.0
2016-Jul-28 13:26N 01°15' E 103°55'0 0.0
2016-Jul-28 12:14N 01°15' E 103°55'0 0.0
2016-Jul-28 11:32N 01°15' E 103°55'0 0.2
2016-Jul-28 10:32N 01°15' E 103°55'0 0.1
2016-Jul-28 09:32N 01°15' E 103°55'0 0.0
2016-Jul-28 08:14N 01°15' E 103°55'0 0.2
2016-Jul-28 07:29N 01°15' E 103°55'0 0.1
2016-Jul-28 06:32N 01°15' E 103°55'0 0.0
2016-Jul-28 05:32N 01°15' E 103°55'0 0.2
2016-Jul-28 04:34N 01°15' E 103°55'3 3.1
2016-Jul-28 03:33N 01°17' E 103°58'3 3.4
2016-Jul-28 02:32N 01°16' E 104°02'  
Track history (hours):
 
Tides and Currents Weather Stations Pressure Air Temp Water Temp Dewpoint Dewpoint Depression Visibility Wind Speed Wind Dir Waves Ship Positions

Shanghai Dawn

Last reported at 2016-Jul-30 14:17 UTC. Time now 2016-Jul-30 14:59 UTC.
Position N 01°14' E 103°46'.

Length 246 m; draft 14.5 m.

Type: Tanker. MMSI: 356075000.

Date/timePositionNaut miles runAvg speedWind from/ knotsBaromVisibWave heightAir tempDewpointWater temp
2016-Jul-30 14:17N 01°14' E 103°46'0 0.0
2016-Jul-30 13:32N 01°14' E 103°46'0 0.0
2016-Jul-30 11:11N 01°14' E 103°46'0 0.1
2016-Jul-30 10:33N 01°14' E 103°46'3 3.4
2016-Jul-30 09:33N 01°13' E 103°49'7 7.0
2016-Jul-30 08:33N 01°14' E 103°56'1 0.6
2016-Jul-30 07:08N 01°15' E 103°55'0 0.2
2016-Jul-30 06:32N 01°15' E 103°55'0 0.1
2016-Jul-30 05:32N 01°15' E 103°55'0 0.0
2016-Jul-29 23:26N 01°15' E 103°55'0 0.0
2016-Jul-29 22:26N 01°15' E 103°55'0 0.0
2016-Jul-29 21:32N 01°15' E 103°55'0 0.0
2016-Jul-29 20:26N 01°15' E 103°55'0 0.0
2016-Jul-29 19:32N 01°15' E 103°55'0 0.0
2016-Jul-29 18:32N 01°15' E 103°55'0 0.0
2016-Jul-29 17:32N 01°15' E 103°55'0 0.0
2016-Jul-29 16:32N 01°15' E 103°55'0 0.0
2016-Jul-29 15:26N 01°15' E 103°55'0 0.0
2016-Jul-29 14:32N 01°15' E 103°55'0 0.0
2016-Jul-29 13:32N 01°15' E 103°55'0 0.0
2016-Jul-29 12:32N 01°15' E 103°55'0 0.2
2016-Jul-29 11:32N 01°15' E 103°55'0 0.1
2016-Jul-29 10:08N 01°15' E 103°55'0 0.0
2016-Jul-29 09:26N 01°15' E 103°55'0 0.0
2016-Jul-29 08:32N 01°15' E 103°55'0 0.2
2016-Jul-29 07:26N 01°15' E 103°55'0 0.1
2016-Jul-29 06:32N 01°15' E 103°55'0 0.1
2016-Jul-29 05:32N 01°15' E 103°55'0 0.0
2016-Jul-29 04:26N 01°15' E 103°55'0 0.0
2016-Jul-29 03:32N 01°15' E 103°55'0 0.0
2016-Jul-29 02:20N 01°15' E 103°55'0 0.0
2016-Jul-29 01:32N 01°15' E 103°55'0 0.0
2016-Jul-29 00:32N 01°15' E 103°55'0 0.0
2016-Jul-28 23:32N 01°15' E 103°55'0 0.0
2016-Jul-28 22:32N 01°15' E 103°55'0 0.0
2016-Jul-28 21:32N 01°15' E 103°55'0 0.0
2016-Jul-28 20:32N 01°15' E 103°55'0 0.0
2016-Jul-28 19:26N 01°15' E 103°55'0 0.0
2016-Jul-28 18:20N 01°15' E 103°55'0 0.0
2016-Jul-28 17:08N 01°15' E 103°55'0 0.0
2016-Jul-28 16:29N 01°15' E 103°55'0 0.0
2016-Jul-28 15:32N 01°15' E 103°55'0 0.0
2016-Jul-28 14:26N 01°15' E 103°55'0 0.0
2016-Jul-28 13:26N 01°15' E 103°55'0 0.0
2016-Jul-28 12:14N 01°15' E 103°55'0 0.0
2016-Jul-28 11:32N 01°15' E 103°55'0 0.2
2016-Jul-28 10:32N 01°15' E 103°55'0 0.1
2016-Jul-28 09:32N 01°15' E 103°55'0 0.0
2016-Jul-28 08:14N 01°15' E 103°55'0 0.2
2016-Jul-28 07:29N 01°15' E 103°55'0 0.1
2016-Jul-28 06:32N 01°15' E 103°55'0 0.0
2016-Jul-28 05:32N 01°15' E 103°55'0 0.2
2016-Jul-28 04:34N 01°15' E 103°55'3 3.1
2016-Jul-28 03:33N 01°17' E 103°58'3 3.4
2016-Jul-28 02:32N 01°16' E 104°02'  

Dump ship's entire track history